Time,TemperatureF,DewpointF,PressureIn,WindDirection,WindDirectionDegrees,WindSpeedMPH,WindSpeedGustMPH,Humidity,HourlyPrecipIn,Conditions,Clouds,dailyrainin,SoftwareType,DateUTC
2013-01-16 00:02:00,20.8,1.4,28.97,North,-999,-999.0,-999.0,42,-99.99,,,-99.99,VWS V14.01,2013-01-16 05:02:00,
2013-01-16 00:03:00,20.7,1.2,28.97,North,-999,-999.0,-999.0,42,-99.99,,,-99.99,VWS V14.01,2013-01-16 05:03:00,
2013-01-16 00:05:00,20.7,1.2,28.97,North,-999,-999.0,-999.0,42,-99.99,,,-99.99,VWS V14.01,2013-01-16 05:05:00,
2013-01-16 00:10:00,20.7,1.7,28.97,North,-999,-999.0,-999.0,43,-99.99,,,-99.99,VWS V14.01,2013-01-16 05:10:00,
2013-01-16 00:16:00,20.5,1.5,28.97,North,-999,-999.0,-999.0,43,-99.99,,,-99.99,VWS V14.01,2013-01-16 05:16:00,
2013-01-16 00:22:00,20.5,1.5,28.97,North,-999,-999.0,-999.0,43,-99.99,,,-99.99,VWS V14.01,2013-01-16 05:22:00,
2013-01-16 00:27:00,20.5,1.5,28.97,North,-999,-999.0,-999.0,43,-99.99,,,-99.99,VWS V14.01,2013-01-16 05:27:00,
2013-01-16 00:32:00,20.3,1.4,28.94,North,-999,-999.0,-999.0,43,-99.99,,,-99.99,VWS V14.01,2013-01-16 05:32:00,
2013-01-16 00:38:00,20.3,1.4,28.94,North,-999,-999.0,-999.0,43,-99.99,,,-99.99,VWS V14.01,2013-01-16 05:38:00,
2013-01-16 00:43:00,20.1,1.2,28.94,North,-999,-999.0,-999.0,43,-99.99,,,-99.99,VWS V14.01,2013-01-16 05:43:00,
2013-01-16 00:50:00,20.1,1.2,28.94,North,-999,-999.0,-999.0,43,-99.99,,,-99.99,VWS V14.01,2013-01-16 05:50:00,
2013-01-16 00:55:00,20.1,1.2,28.94,North,-999,-999.0,-999.0,43,-99.99,,,-99.99,VWS V14.01,2013-01-16 05:55:00,
2013-01-16 01:00:00,19.9,1.5,28.94,North,-999,-999.0,-999.0,44,-99.99,,,-99.99,VWS V14.01,2013-01-16 06:00:00,
2013-01-16 01:05:00,19.9,1.5,28.94,North,-999,-999.0,-999.0,44,-99.99,,,-99.99,VWS V14.01,2013-01-16 06:05:00,
2013-01-16 01:10:00,19.9,1.5,28.94,North,-999,-999.0,-999.0,44,-99.99,,,-99.99,VWS V14.01,2013-01-16 06:10:00,
2013-01-16 01:16:00,19.8,1.4,28.91,North,-999,-999.0,-999.0,44,-99.99,,,-99.99,VWS V14.01,2013-01-16 06:16:00,
2013-01-16 01:22:00,19.6,1.2,28.91,North,-999,-999.0,-999.0,44,-99.99,,,-99.99,VWS V14.01,2013-01-16 06:22:00,
2013-01-16 01:27:00,19.4,1.1,28.91,North,-999,-999.0,-999.0,44,-99.99,,,-99.99,VWS V14.01,2013-01-16 06:27:00,
2013-01-16 01:32:00,19.2,0.9,28.91,North,-999,-999.0,-999.0,44,-99.99,,,-99.99,VWS V14.01,2013-01-16 06:32:00,
2013-01-16 01:38:00,19.0,1.2,28.91,North,-999,-999.0,-999.0,45,-99.99,,,-99.99,VWS V14.01,2013-01-16 06:38:00,
2013-01-16 01:44:00,19.2,1.4,28.91,North,-999,-999.0,-999.0,45,-99.99,,,-99.99,VWS V14.01,2013-01-16 06:44:00,
2013-01-16 01:50:00,19.0,1.2,28.91,North,-999,-999.0,-999.0,45,-99.99,,,-99.99,VWS V14.01,2013-01-16 06:50:00,
2013-01-16 01:55:00,19.0,1.2,28.91,North,-999,-999.0,-999.0,45,-99.99,,,-99.99,VWS V14.01,2013-01-16 06:55:00,
2013-01-16 02:01:00,18.9,1.0,28.91,North,-999,-999.0,-999.0,45,-99.99,,,-99.99,VWS V14.01,2013-01-16 07:01:00,
2013-01-16 02:06:00,18.7,0.9,28.91,North,-999,-999.0,-999.0,45,-99.99,,,-99.99,VWS V14.01,2013-01-16 07:06:00,
2013-01-16 02:11:00,18.7,0.9,28.91,North,-999,-999.0,-999.0,45,-99.99,,,-99.99,VWS V14.01,2013-01-16 07:11:00,
2013-01-16 02:16:00,18.7,1.4,28.91,North,-999,-999.0,-999.0,46,-99.99,,,-99.99,VWS V14.01,2013-01-16 07:16:00,
2013-01-16 02:21:00,18.7,1.4,28.91,North,-999,-999.0,-999.0,46,-99.99,,,-99.99,VWS V14.01,2013-01-16 07:21:00,
2013-01-16 02:26:00,18.7,1.4,28.91,North,-999,-999.0,-999.0,46,-99.99,,,-99.99,VWS V14.01,2013-01-16 07:26:00,
2013-01-16 02:32:00,18.5,1.2,28.91,North,-999,-999.0,-999.0,46,-99.99,,,-99.99,VWS V14.01,2013-01-16 07:32:00,
2013-01-16 02:38:00,18.3,1.0,28.91,North,-999,-999.0,-999.0,46,-99.99,,,-99.99,VWS V14.01,2013-01-16 07:38:00,
2013-01-16 02:44:00,18.3,1.0,28.91,North,-999,-999.0,-999.0,46,-99.99,,,-99.99,VWS V14.01,2013-01-16 07:44:00,
2013-01-16 02:49:00,18.1,0.9,28.88,North,-999,-999.0,-999.0,46,-99.99,,,-99.99,VWS V14.01,2013-01-16 07:49:00,
2013-01-16 02:54:00,17.8,1.0,28.88,North,-999,-999.0,-999.0,47,-99.99,,,-99.99,VWS V14.01,2013-01-16 07:54:00,
2013-01-16 02:59:00,17.8,1.0,28.88,North,-999,-999.0,-999.0,47,-99.99,,,-99.99,VWS V14.01,2013-01-16 07:59:00,
2013-01-16 03:05:00,17.6,0.8,28.88,North,-999,-999.0,-999.0,47,-99.99,,,-99.99,VWS V14.01,2013-01-16 08:05:00,
2013-01-16 03:11:00,17.6,0.8,28.88,North,-999,-999.0,-999.0,47,-99.99,,,-99.99,VWS V14.01,2013-01-16 08:11:00,
2013-01-16 03:17:00,17.4,0.6,28.88,North,-999,-999.0,-999.0,47,-99.99,,,-99.99,VWS V14.01,2013-01-16 08:17:00,
2013-01-16 03:22:00,17.4,0.6,28.88,North,-999,-999.0,-999.0,47,-99.99,,,-99.99,VWS V14.01,2013-01-16 08:22:00,
2013-01-16 03:27:00,17.4,0.6,28.88,North,-999,-999.0,-999.0,47,-99.99,,,-99.99,VWS V14.01,2013-01-16 08:27:00,
2013-01-16 03:32:00,17.4,1.1,28.88,North,-999,-999.0,-999.0,48,-99.99,,,-99.99,VWS V14.01,2013-01-16 08:32:00,
2013-01-16 03:37:00,17.6,1.3,28.88,North,-999,-999.0,-999.0,48,-99.99,,,-99.99,VWS V14.01,2013-01-16 08:37:00,
2013-01-16 03:42:00,17.6,1.3,28.88,North,-999,-999.0,-999.0,48,-99.99,,,-99.99,VWS V14.01,2013-01-16 08:42:00,
2013-01-16 03:48:00,18.5,2.5,28.88,North,-999,-999.0,-999.0,49,-99.99,,,-99.99,VWS V14.01,2013-01-16 08:48:00,
2013-01-16 03:53:00,19.6,4.4,28.88,North,-999,-999.0,-999.0,51,-99.99,,,-99.99,VWS V14.01,2013-01-16 08:53:00,
2013-01-16 03:59:00,20.3,5.1,28.88,North,-999,-999.0,-999.0,51,-99.99,,,-99.99,VWS V14.01,2013-01-16 08:59:00,
2013-01-16 04:04:00,20.3,5.1,28.88,North,-999,-999.0,-999.0,51,-99.99,,,-99.99,VWS V14.01,2013-01-16 09:04:00,
2013-01-16 04:09:00,20.5,5.2,28.88,North,-999,-999.0,-999.0,51,-99.99,,,-99.99,VWS V14.01,2013-01-16 09:09:00,
2013-01-16 04:15:00,20.5,5.2,28.88,North,-999,-999.0,-999.0,51,-99.99,,,-99.99,VWS V14.01,2013-01-16 09:15:00,
2013-01-16 04:20:00,20.3,5.1,28.88,North,-999,-999.0,-999.0,51,-99.99,,,-99.99,VWS V14.01,2013-01-16 09:20:00,
2013-01-16 04:25:00,20.3,5.1,28.88,North,-999,-999.0,-999.0,51,-99.99,,,-99.99,VWS V14.01,2013-01-16 09:25:00,
2013-01-16 04:30:00,20.1,5.3,28.88,North,-999,-999.0,-999.0,52,-99.99,,,-99.99,VWS V14.01,2013-01-16 09:30:00,
2013-01-16 04:35:00,19.9,5.2,28.85,North,-999,-999.0,-999.0,52,-99.99,,,-99.99,VWS V14.01,2013-01-16 09:35:00,
2013-01-16 04:41:00,19.9,5.2,28.85,North,-999,-999.0,-999.0,52,-99.99,,,-99.99,VWS V14.01,2013-01-16 09:41:00,
2013-01-16 04:46:00,19.9,5.2,28.85,North,-999,-999.0,-999.0,52,-99.99,,,-99.99,VWS V14.01,2013-01-16 09:46:00,
2013-01-16 04:51:00,19.8,5.0,28.85,North,-999,-999.0,-999.0,52,-99.99,,,-99.99,VWS V14.01,2013-01-16 09:51:00,
2013-01-16 04:57:00,19.8,5.0,28.85,North,-999,-999.0,-999.0,52,-99.99,,,-99.99,VWS V14.01,2013-01-16 09:57:00,
2013-01-16 05:02:00,19.9,5.2,28.85,North,-999,-999.0,-999.0,52,-99.99,,,-99.99,VWS V14.01,2013-01-16 10:02:00,
2013-01-16 05:08:00,20.1,5.7,28.85,North,-999,-999.0,-999.0,53,-99.99,,,-99.99,VWS V14.01,2013-01-16 10:08:00,
2013-01-16 05:13:00,20.3,5.9,28.85,North,-999,-999.0,-999.0,53,-99.99,,,-99.99,VWS V14.01,2013-01-16 10:13:00,
2013-01-16 05:18:00,20.5,6.1,28.85,North,-999,-999.0,-999.0,53,-99.99,,,-99.99,VWS V14.01,2013-01-16 10:18:00,
2013-01-16 05:24:00,20.8,6.4,28.85,North,-999,-999.0,-999.0,53,-99.99,,,-99.99,VWS V14.01,2013-01-16 10:24:00,
2013-01-16 05:29:00,21.0,6.6,28.85,North,-999,-999.0,-999.0,53,-99.99,,,-99.99,VWS V14.01,2013-01-16 10:29:00,
2013-01-16 05:35:00,21.2,6.8,28.85,North,-999,-999.0,-999.0,53,-99.99,,,-99.99,VWS V14.01,2013-01-16 10:35:00,
2013-01-16 05:41:00,21.2,6.8,28.85,North,-999,-999.0,-999.0,53,-99.99,,,-99.99,VWS V14.01,2013-01-16 10:41:00,
2013-01-16 05:47:00,21.2,6.8,28.82,North,-999,-999.0,-999.0,53,-99.99,,,-99.99,VWS V14.01,2013-01-16 10:47:00,
2013-01-16 05:52:00,21.2,6.8,28.82,North,-999,-999.0,-999.0,53,-99.99,,,-99.99,VWS V14.01,2013-01-16 10:52:00,
2013-01-16 05:57:00,20.8,6.0,28.82,North,-999,-999.0,-999.0,52,-99.99,,,-99.99,VWS V14.01,2013-01-16 10:57:00,
2013-01-16 06:03:00,20.7,5.8,28.82,North,-999,-999.0,-999.0,52,-99.99,,,-99.99,VWS V14.01,2013-01-16 11:03:00,
2013-01-16 06:08:00,20.5,5.2,28.82,North,-999,-999.0,-999.0,51,-99.99,,,-99.99,VWS V14.01,2013-01-16 11:08:00,
2013-01-16 06:14:00,20.3,5.1,28.82,North,-999,-999.0,-999.0,51,-99.99,,,-99.99,VWS V14.01,2013-01-16 11:14:00,
2013-01-16 06:19:00,20.1,4.5,28.82,North,-999,-999.0,-999.0,50,-99.99,,,-99.99,VWS V14.01,2013-01-16 11:19:00,
2013-01-16 06:24:00,19.9,4.3,28.82,North,-999,-999.0,-999.0,50,-99.99,,,-99.99,VWS V14.01,2013-01-16 11:24:00,
2013-01-16 06:29:00,19.6,4.0,28.82,North,-999,-999.0,-999.0,50,-99.99,,,-99.99,VWS V14.01,2013-01-16 11:29:00,
2013-01-16 06:34:00,19.6,4.0,28.79,North,-999,-999.0,-999.0,50,-99.99,,,-99.99,VWS V14.01,2013-01-16 11:34:00,
2013-01-16 06:39:00,19.4,3.8,28.79,North,-999,-999.0,-999.0,50,-99.99,,,-99.99,VWS V14.01,2013-01-16 11:39:00,
2013-01-16 06:44:00,19.6,4.0,28.79,North,-999,-999.0,-999.0,50,-99.99,,,-99.99,VWS V14.01,2013-01-16 11:44:00,
2013-01-16 06:50:00,19.9,4.3,28.79,North,-999,-999.0,-999.0,50,-99.99,,,-99.99,VWS V14.01,2013-01-16 11:50:00,
2013-01-16 06:55:00,20.1,4.5,28.79,North,-999,-999.0,-999.0,50,-99.99,,,-99.99,VWS V14.01,2013-01-16 11:55:00,
2013-01-16 07:01:00,19.9,4.3,28.79,North,-999,-999.0,-999.0,50,-99.99,,,-99.99,VWS V14.01,2013-01-16 12:01:00,
2013-01-16 07:06:00,19.6,4.0,28.79,North,-999,-999.0,-999.0,50,-99.99,,,-99.99,VWS V14.01,2013-01-16 12:06:00,
2013-01-16 07:12:00,19.6,4.0,28.79,North,-999,-999.0,-999.0,50,-99.99,,,-99.99,VWS V14.01,2013-01-16 12:12:00,
2013-01-16 07:18:00,19.9,4.3,28.79,North,-999,-999.0,-999.0,50,-99.99,,,-99.99,VWS V14.01,2013-01-16 12:18:00,
2013-01-16 07:24:00,19.9,4.3,28.79,North,-999,-999.0,-999.0,50,-99.99,,,-99.99,VWS V14.01,2013-01-16 12:24:00,
2013-01-16 07:29:00,20.1,4.5,28.79,North,-999,-999.0,-999.0,50,-99.99,,,-99.99,VWS V14.01,2013-01-16 12:29:00,
2013-01-16 07:34:00,20.3,5.1,28.79,North,-999,-999.0,-999.0,51,-99.99,,,-99.99,VWS V14.01,2013-01-16 12:34:00,
2013-01-16 07:40:00,20.3,5.1,28.79,North,-999,-999.0,-999.0,51,-99.99,,,-99.99,VWS V14.01,2013-01-16 12:40:00,
2013-01-16 07:45:00,20.3,5.1,28.79,North,-999,-999.0,-999.0,51,-99.99,,,-99.99,VWS V14.01,2013-01-16 12:45:00,
2013-01-16 07:50:00,20.3,4.6,28.79,North,-999,-999.0,-999.0,50,-99.99,,,-99.99,VWS V14.01,2013-01-16 12:50:00,
2013-01-16 07:55:00,20.3,4.6,28.79,North,-999,-999.0,-999.0,50,-99.99,,,-99.99,VWS V14.01,2013-01-16 12:55:00,
2013-01-16 08:01:00,20.3,4.6,28.76,North,-999,-999.0,-999.0,50,-99.99,,,-99.99,VWS V14.01,2013-01-16 13:01:00,
2013-01-16 08:06:00,20.1,4.0,28.76,North,-999,-999.0,-999.0,49,-99.99,,,-99.99,VWS V14.01,2013-01-16 13:06:00,
2013-01-16 08:12:00,19.9,3.9,28.76,North,-999,-999.0,-999.0,49,-99.99,,,-99.99,VWS V14.01,2013-01-16 13:12:00,
2013-01-16 08:17:00,19.9,3.9,28.76,North,-999,-999.0,-999.0,49,-99.99,,,-99.99,VWS V14.01,2013-01-16 13:17:00,
2013-01-16 08:22:00,19.9,3.9,28.76,North,-999,-999.0,-999.0,49,-99.99,,,-99.99,VWS V14.01,2013-01-16 13:22:00,
2013-01-16 08:28:00,19.8,3.7,28.76,North,-999,-999.0,-999.0,49,-99.99,,,-99.99,VWS V14.01,2013-01-16 13:28:00,
2013-01-16 08:33:00,19.6,3.1,28.76,North,-999,-999.0,-999.0,48,-99.99,,,-99.99,VWS V14.01,2013-01-16 13:33:00,
2013-01-16 08:38:00,19.8,3.3,28.76,North,-999,-999.0,-999.0,48,-99.99,,,-99.99,VWS V14.01,2013-01-16 13:38:00,
2013-01-16 08:43:00,19.8,3.7,28.76,North,-999,-999.0,-999.0,49,-99.99,,,-99.99,VWS V14.01,2013-01-16 13:43:00,
2013-01-16 08:49:00,20.1,3.6,28.76,North,-999,-999.0,-999.0,48,-99.99,,,-99.99,VWS V14.01,2013-01-16 13:49:00,
2013-01-16 08:55:00,20.3,3.8,28.76,North,-999,-999.0,-999.0,48,-99.99,,,-99.99,VWS V14.01,2013-01-16 13:55:00,
2013-01-16 09:00:00,20.5,3.9,28.76,North,-999,-999.0,-999.0,48,-99.99,,,-99.99,VWS V14.01,2013-01-16 14:00:00,
2013-01-16 09:06:00,20.8,3.8,28.76,North,-999,-999.0,-999.0,47,-99.99,,,-99.99,VWS V14.01,2013-01-16 14:06:00,
2013-01-16 09:11:00,21.2,4.1,28.76,North,-999,-999.0,-999.0,47,-99.99,,,-99.99,VWS V14.01,2013-01-16 14:11:00,
2013-01-16 09:16:00,21.2,4.1,28.76,North,-999,-999.0,-999.0,47,-99.99,,,-99.99,VWS V14.01,2013-01-16 14:16:00,
2013-01-16 09:21:00,21.6,4.0,28.76,North,-999,-999.0,-999.0,46,-99.99,,,-99.99,VWS V14.01,2013-01-16 14:21:00,
2013-01-16 09:26:00,21.9,4.3,28.76,North,-999,-999.0,-999.0,46,-99.99,,,-99.99,VWS V14.01,2013-01-16 14:26:00,
2013-01-16 09:31:00,22.1,4.0,28.76,North,-999,-999.0,-999.0,45,-99.99,,,-99.99,VWS V14.01,2013-01-16 14:31:00,
2013-01-16 09:36:00,22.5,3.9,28.76,North,-999,-999.0,-999.0,44,-99.99,,,-99.99,VWS V14.01,2013-01-16 14:36:00,
2013-01-16 09:41:00,22.8,3.7,28.76,North,-999,-999.0,-999.0,43,-99.99,,,-99.99,VWS V14.01,2013-01-16 14:41:00,
2013-01-16 09:46:00,23.2,1.4,28.76,North,-999,-999.0,-999.0,38,-99.99,,,-99.99,VWS V14.01,2013-01-16 14:46:00,
2013-01-16 09:52:00,23.5,1.1,28.76,North,-999,-999.0,-999.0,37,-99.99,,,-99.99,VWS V14.01,2013-01-16 14:52:00,
2013-01-16 09:58:00,23.9,1.4,28.76,North,-999,-999.0,-999.0,37,-99.99,,,-99.99,VWS V14.01,2013-01-16 14:58:00,
2013-01-16 10:04:00,24.3,1.8,28.76,North,-999,-999.0,-999.0,37,-99.99,,,-99.99,VWS V14.01,2013-01-16 15:04:00,
2013-01-16 10:09:00,24.6,2.1,28.76,North,-999,-999.0,-999.0,37,-99.99,,,-99.99,VWS V14.01,2013-01-16 15:09:00,
2013-01-16 10:14:00,25.0,3.0,28.76,North,-999,-999.0,-999.0,38,-99.99,,,-99.99,VWS V14.01,2013-01-16 15:14:00,
2013-01-16 10:19:00,25.2,4.2,28.76,North,-999,-999.0,-999.0,40,-99.99,,,-99.99,VWS V14.01,2013-01-16 15:19:00,
2013-01-16 10:25:00,25.3,4.9,28.76,North,-999,-999.0,-999.0,41,-99.99,,,-99.99,VWS V14.01,2013-01-16 15:25:00,
2013-01-16 10:31:00,25.7,5.3,28.76,North,-999,-999.0,-999.0,41,-99.99,,,-99.99,VWS V14.01,2013-01-16 15:31:00,
2013-01-16 10:37:00,26.1,5.6,28.76,North,-999,-999.0,-999.0,41,-99.99,,,-99.99,VWS V14.01,2013-01-16 15:37:00,
2013-01-16 10:42:00,26.2,5.2,28.76,North,-999,-999.0,-999.0,40,-99.99,,,-99.99,VWS V14.01,2013-01-16 15:42:00,
2013-01-16 10:47:00,26.4,4.8,28.73,North,-999,-999.0,-999.0,39,-99.99,,,-99.99,VWS V14.01,2013-01-16 15:47:00,
2013-01-16 10:52:00,26.6,3.3,28.73,North,-999,-999.0,-999.0,36,-99.99,,,-99.99,VWS V14.01,2013-01-16 15:52:00,
2013-01-16 10:58:00,26.6,2.0,28.73,North,-999,-999.0,-999.0,34,-99.99,,,-99.99,VWS V14.01,2013-01-16 15:58:00,
2013-01-16 11:03:00,27.0,1.0,28.73,North,-999,-999.0,-999.0,32,-99.99,,,-99.99,VWS V14.01,2013-01-16 16:03:00,
2013-01-16 11:09:00,27.1,1.2,28.73,North,-999,-999.0,-999.0,32,-99.99,,,-99.99,VWS V14.01,2013-01-16 16:09:00,
2013-01-16 11:14:00,27.5,0.8,28.73,North,-999,-999.0,-999.0,31,-99.99,,,-99.99,VWS V14.01,2013-01-16 16:14:00,
2013-01-16 11:20:00,27.7,-1.2,28.73,North,-999,-999.0,-999.0,28,-99.99,,,-99.99,VWS V14.01,2013-01-16 16:20:00,
2013-01-16 11:25:00,27.7,-2.7,28.73,North,-999,-999.0,-999.0,26,-99.99,,,-99.99,VWS V14.01,2013-01-16 16:25:00,
2013-01-16 11:30:00,27.9,-5.1,28.73,North,-999,-999.0,-999.0,23,-99.99,,,-99.99,VWS V14.01,2013-01-16 16:30:00,
2013-01-16 11:35:00,28.0,-5.0,28.73,North,-999,-999.0,-999.0,23,-99.99,,,-99.99,VWS V14.01,2013-01-16 16:35:00,
2013-01-16 11:40:00,28.2,-4.8,28.73,North,-999,-999.0,-999.0,23,-99.99,,,-99.99,VWS V14.01,2013-01-16 16:40:00,
2013-01-16 11:46:00,28.4,-6.5,28.70,North,-999,-999.0,-999.0,21,-99.99,,,-99.99,VWS V14.01,2013-01-16 16:46:00,
2013-01-16 11:51:00,28.6,-7.4,28.70,North,-999,-999.0,-999.0,20,-99.99,,,-99.99,VWS V14.01,2013-01-16 16:51:00,
2013-01-16 11:57:00,28.6,-7.4,28.70,North,-999,-999.0,-999.0,20,-99.99,,,-99.99,VWS V14.01,2013-01-16 16:57:00,
2013-01-16 12:02:00,28.8,-7.2,28.67,North,-999,-999.0,-999.0,20,-99.99,,,-99.99,VWS V14.01,2013-01-16 17:02:00,
2013-01-16 12:08:00,29.1,-6.9,28.67,North,-999,-999.0,-999.0,20,-99.99,,,-99.99,VWS V14.01,2013-01-16 17:08:00,
2013-01-16 12:13:00,29.3,-6.8,28.67,North,-999,-999.0,-999.0,20,-99.99,,,-99.99,VWS V14.01,2013-01-16 17:13:00,
2013-01-16 12:18:00,29.5,-6.6,28.67,North,-999,-999.0,-999.0,20,-99.99,,,-99.99,VWS V14.01,2013-01-16 17:18:00,
2013-01-16 12:23:00,29.8,-6.3,28.67,North,-999,-999.0,-999.0,20,-99.99,,,-99.99,VWS V14.01,2013-01-16 17:23:00,
2013-01-16 12:29:00,30.2,-6.0,28.67,North,-999,-999.0,-999.0,20,-99.99,,,-99.99,VWS V14.01,2013-01-16 17:29:00,
2013-01-16 12:34:00,30.4,-5.9,28.64,North,-999,-999.0,-999.0,20,-99.99,,,-99.99,VWS V14.01,2013-01-16 17:34:00,
2013-01-16 12:40:00,30.7,-5.6,28.64,North,-999,-999.0,-999.0,20,-99.99,,,-99.99,VWS V14.01,2013-01-16 17:40:00,
2013-01-16 12:45:00,31.1,-5.3,28.64,North,-999,-999.0,-999.0,20,-99.99,,,-99.99,VWS V14.01,2013-01-16 17:45:00,
2013-01-16 12:50:00,31.1,-5.3,28.64,North,-999,-999.0,-999.0,20,-99.99,,,-99.99,VWS V14.01,2013-01-16 17:50:00,
2013-01-16 12:56:00,31.3,-5.1,28.64,North,-999,-999.0,-999.0,20,-99.99,,,-99.99,VWS V14.01,2013-01-16 17:56:00,
2013-01-16 13:01:00,31.5,-5.0,28.64,North,-999,-999.0,-999.0,20,-99.99,,,-99.99,VWS V14.01,2013-01-16 18:01:00,
2013-01-16 13:06:00,31.8,-4.7,28.64,North,-999,-999.0,-999.0,20,-99.99,,,-99.99,VWS V14.01,2013-01-16 18:06:00,
2013-01-16 13:11:00,32.0,-4.5,28.64,North,-999,-999.0,-999.0,20,-99.99,,,-99.99,VWS V14.01,2013-01-16 18:11:00,
2013-01-16 13:17:00,32.4,-4.2,28.64,North,-999,-999.0,-999.0,20,-99.99,,,-99.99,VWS V14.01,2013-01-16 18:17:00,
2013-01-16 13:22:00,32.4,-4.2,28.64,North,-999,-999.0,-999.0,20,-99.99,,,-99.99,VWS V14.01,2013-01-16 18:22:00,
2013-01-16 13:27:00,32.7,-3.9,28.64,North,-999,-999.0,-999.0,20,-99.99,,,-99.99,VWS V14.01,2013-01-16 18:27:00,
2013-01-16 13:32:00,32.7,-3.9,28.64,North,-999,-999.0,-999.0,20,-99.99,,,-99.99,VWS V14.01,2013-01-16 18:32:00,
2013-01-16 13:38:00,32.7,-3.9,28.64,North,-999,-999.0,-999.0,20,-99.99,,,-99.99,VWS V14.01,2013-01-16 18:38:00,
2013-01-16 13:44:00,33.1,-3.6,28.64,North,-999,-999.0,-999.0,20,-99.99,,,-99.99,VWS V14.01,2013-01-16 18:44:00,
2013-01-16 13:49:00,33.1,-3.6,28.61,North,-999,-999.0,-999.0,20,-99.99,,,-99.99,VWS V14.01,2013-01-16 18:49:00,
2013-01-16 13:54:00,33.1,-3.6,28.61,North,-999,-999.0,-999.0,20,-99.99,,,-99.99,VWS V14.01,2013-01-16 18:54:00,
2013-01-16 13:59:00,33.1,-3.6,28.61,North,-999,-999.0,-999.0,20,-99.99,,,-99.99,VWS V14.01,2013-01-16 18:59:00,
2013-01-16 14:05:00,33.3,-3.5,28.61,North,-999,-999.0,-999.0,20,-99.99,,,-99.99,VWS V14.01,2013-01-16 19:05:00,
2013-01-16 14:11:00,33.6,-3.2,28.61,North,-999,-999.0,-999.0,20,-99.99,,,-99.99,VWS V14.01,2013-01-16 19:11:00,
2013-01-16 14:16:00,33.8,-3.0,28.61,North,-999,-999.0,-999.0,20,-99.99,,,-99.99,VWS V14.01,2013-01-16 19:16:00,
2013-01-16 14:22:00,33.8,-3.0,28.61,North,-999,-999.0,-999.0,20,-99.99,,,-99.99,VWS V14.01,2013-01-16 19:22:00,
2013-01-16 14:27:00,34.0,-2.9,28.61,North,-999,-999.0,-999.0,20,-99.99,,,-99.99,VWS V14.01,2013-01-16 19:27:00,
2013-01-16 14:32:00,34.2,-2.7,28.61,North,-999,-999.0,-999.0,20,-99.99,,,-99.99,VWS V14.01,2013-01-16 19:32:00,
2013-01-16 14:38:00,34.3,-2.6,28.61,North,-999,-999.0,-999.0,20,-99.99,,,-99.99,VWS V14.01,2013-01-16 19:38:00,
2013-01-16 14:43:00,34.3,-2.6,28.61,North,-999,-999.0,-999.0,20,-99.99,,,-99.99,VWS V14.01,2013-01-16 19:43:00,
2013-01-16 14:49:00,34.3,-2.6,28.61,North,-999,-999.0,-999.0,20,-99.99,,,-99.99,VWS V14.01,2013-01-16 19:49:00,
2013-01-16 14:54:00,34.5,-2.4,28.61,North,-999,-999.0,-999.0,20,-99.99,,,-99.99,VWS V14.01,2013-01-16 19:54:00,
2013-01-16 14:59:00,34.5,-2.4,28.61,North,-999,-999.0,-999.0,20,-99.99,,,-99.99,VWS V14.01,2013-01-16 19:59:00,
2013-01-16 15:05:00,34.3,-2.6,28.61,North,-999,-999.0,-999.0,20,-99.99,,,-99.99,VWS V14.01,2013-01-16 20:05:00,
2013-01-16 15:10:00,34.3,-2.6,28.61,North,-999,-999.0,-999.0,20,-99.99,,,-99.99,VWS V14.01,2013-01-16 20:10:00,
2013-01-16 15:15:00,34.3,-2.6,28.61,North,-999,-999.0,-999.0,20,-99.99,,,-99.99,VWS V14.01,2013-01-16 20:15:00,
2013-01-16 15:20:00,34.3,-2.6,28.61,North,-999,-999.0,-999.0,20,-99.99,,,-99.99,VWS V14.01,2013-01-16 20:20:00,
2013-01-16 15:25:00,34.5,-2.4,28.61,North,-999,-999.0,-999.0,20,-99.99,,,-99.99,VWS V14.01,2013-01-16 20:25:00,
2013-01-16 15:30:00,34.3,-2.6,28.61,North,-999,-999.0,-999.0,20,-99.99,,,-99.99,VWS V14.01,2013-01-16 20:30:00,
2013-01-16 15:35:00,34.2,-2.7,28.61,North,-999,-999.0,-999.0,20,-99.99,,,-99.99,VWS V14.01,2013-01-16 20:35:00,
2013-01-16 15:41:00,33.8,-3.0,28.61,North,-999,-999.0,-999.0,20,-99.99,,,-99.99,VWS V14.01,2013-01-16 20:41:00,
2013-01-16 15:47:00,33.8,-3.0,28.61,North,-999,-999.0,-999.0,20,-99.99,,,-99.99,VWS V14.01,2013-01-16 20:47:00,
2013-01-16 15:52:00,33.8,-3.0,28.61,North,-999,-999.0,-999.0,20,-99.99,,,-99.99,VWS V14.01,2013-01-16 20:52:00,
2013-01-16 15:57:00,33.6,-3.2,28.61,North,-999,-999.0,-999.0,20,-99.99,,,-99.99,VWS V14.01,2013-01-16 20:57:00,
2013-01-16 16:02:00,33.6,-3.2,28.61,North,-999,-999.0,-999.0,20,-99.99,,,-99.99,VWS V14.01,2013-01-16 21:02:00,
2013-01-16 16:07:00,33.6,-3.2,28.61,North,-999,-999.0,-999.0,20,-99.99,,,-99.99,VWS V14.01,2013-01-16 21:07:00,
2013-01-16 16:13:00,33.8,-3.0,28.61,North,-999,-999.0,-999.0,20,-99.99,,,-99.99,VWS V14.01,2013-01-16 21:13:00,
2013-01-16 16:18:00,33.8,-3.0,28.61,North,-999,-999.0,-999.0,20,-99.99,,,-99.99,VWS V14.01,2013-01-16 21:18:00,
2013-01-16 16:23:00,33.8,-3.0,28.61,North,-999,-999.0,-999.0,20,-99.99,,,-99.99,VWS V14.01,2013-01-16 21:23:00,
2013-01-16 16:28:00,33.8,-3.0,28.61,North,-999,-999.0,-999.0,20,-99.99,,,-99.99,VWS V14.01,2013-01-16 21:28:00,
2013-01-16 16:33:00,33.6,-3.2,28.61,North,-999,-999.0,-999.0,20,-99.99,,,-99.99,VWS V14.01,2013-01-16 21:33:00,
2013-01-16 16:39:00,33.6,-3.2,28.61,North,-999,-999.0,-999.0,20,-99.99,,,-99.99,VWS V14.01,2013-01-16 21:39:00,
2013-01-16 16:44:00,33.3,-3.5,28.61,North,-999,-999.0,-999.0,20,-99.99,,,-99.99,VWS V14.01,2013-01-16 21:44:00,
2013-01-16 16:50:00,33.3,-3.5,28.61,North,-999,-999.0,-999.0,20,-99.99,,,-99.99,VWS V14.01,2013-01-16 21:50:00,
2013-01-16 16:56:00,33.1,-3.6,28.61,North,-999,-999.0,-999.0,20,-99.99,,,-99.99,VWS V14.01,2013-01-16 21:56:00,
2013-01-16 17:01:00,33.1,-3.6,28.64,North,-999,-999.0,-999.0,20,-99.99,,,-99.99,VWS V14.01,2013-01-16 22:01:00,
2013-01-16 17:06:00,33.1,-3.6,28.64,North,-999,-999.0,-999.0,20,-99.99,,,-99.99,VWS V14.01,2013-01-16 22:06:00,
2013-01-16 17:12:00,32.9,-3.8,28.64,North,-999,-999.0,-999.0,20,-99.99,,,-99.99,VWS V14.01,2013-01-16 22:12:00,
2013-01-16 17:17:00,32.9,-3.8,28.64,North,-999,-999.0,-999.0,20,-99.99,,,-99.99,VWS V14.01,2013-01-16 22:17:00,
2013-01-16 17:23:00,33.1,-3.6,28.64,North,-999,-999.0,-999.0,20,-99.99,,,-99.99,VWS V14.01,2013-01-16 22:23:00,
2013-01-16 17:28:00,32.9,-3.8,28.64,North,-999,-999.0,-999.0,20,-99.99,,,-99.99,VWS V14.01,2013-01-16 22:28:00,
2013-01-16 17:33:00,32.7,-3.9,28.64,North,-999,-999.0,-999.0,20,-99.99,,,-99.99,VWS V14.01,2013-01-16 22:33:00,
2013-01-16 17:38:00,32.7,-3.9,28.64,North,-999,-999.0,-999.0,20,-99.99,,,-99.99,VWS V14.01,2013-01-16 22:38:00,
2013-01-16 17:44:00,32.5,-4.1,28.64,North,-999,-999.0,-999.0,20,-99.99,,,-99.99,VWS V14.01,2013-01-16 22:44:00,
2013-01-16 17:49:00,32.5,-4.1,28.64,North,-999,-999.0,-999.0,20,-99.99,,,-99.99,VWS V14.01,2013-01-16 22:49:00,
2013-01-16 17:54:00,32.5,-4.1,28.64,North,-999,-999.0,-999.0,20,-99.99,,,-99.99,VWS V14.01,2013-01-16 22:54:00,
2013-01-16 18:00:00,32.5,-4.1,28.64,North,-999,-999.0,-999.0,20,-99.99,,,-99.99,VWS V14.01,2013-01-16 23:00:00,
2013-01-16 18:05:00,32.5,-4.1,28.64,North,-999,-999.0,-999.0,20,-99.99,,,-99.99,VWS V14.01,2013-01-16 23:05:00,
2013-01-16 18:10:00,32.5,-4.1,28.64,North,-999,-999.0,-999.0,20,-99.99,,,-99.99,VWS V14.01,2013-01-16 23:10:00,
2013-01-16 18:15:00,32.4,-4.2,28.64,North,-999,-999.0,-999.0,20,-99.99,,,-99.99,VWS V14.01,2013-01-16 23:15:00,
2013-01-16 18:21:00,32.4,-4.2,28.64,North,-999,-999.0,-999.0,20,-99.99,,,-99.99,VWS V14.01,2013-01-16 23:21:00,
2013-01-16 18:26:00,32.5,-4.1,28.64,North,-999,-999.0,-999.0,20,-99.99,,,-99.99,VWS V14.01,2013-01-16 23:26:00,
2013-01-16 18:32:00,32.5,-4.1,28.64,North,-999,-999.0,-999.0,20,-99.99,,,-99.99,VWS V14.01,2013-01-16 23:32:00,
2013-01-16 18:38:00,32.5,-4.1,28.64,North,-999,-999.0,-999.0,20,-99.99,,,-99.99,VWS V14.01,2013-01-16 23:38:00,
2013-01-16 18:44:00,32.4,-4.2,28.64,North,-999,-999.0,-999.0,20,-99.99,,,-99.99,VWS V14.01,2013-01-16 23:44:00,
2013-01-16 18:49:00,32.4,-4.2,28.67,North,-999,-999.0,-999.0,20,-99.99,,,-99.99,VWS V14.01,2013-01-16 23:49:00,
2013-01-16 18:54:00,32.4,-4.2,28.67,North,-999,-999.0,-999.0,20,-99.99,,,-99.99,VWS V14.01,2013-01-16 23:54:00,
2013-01-16 19:00:00,32.2,-4.4,28.67,North,-999,-999.0,-999.0,20,-99.99,,,-99.99,VWS V14.01,2013-01-17 00:00:00,
2013-01-16 19:05:00,32.4,-4.2,28.67,North,-999,-999.0,-999.0,20,-99.99,,,-99.99,VWS V14.01,2013-01-17 00:05:00,
2013-01-16 19:11:00,32.2,-4.4,28.67,North,-999,-999.0,-999.0,20,-99.99,,,-99.99,VWS V14.01,2013-01-17 00:11:00,
2013-01-16 19:16:00,32.2,-4.4,28.67,North,-999,-999.0,-999.0,20,-99.99,,,-99.99,VWS V14.01,2013-01-17 00:16:00,
2013-01-16 19:21:00,32.2,-4.4,28.67,North,-999,-999.0,-999.0,20,-99.99,,,-99.99,VWS V14.01,2013-01-17 00:21:00,
2013-01-16 19:27:00,32.2,-4.4,28.67,North,-999,-999.0,-999.0,20,-99.99,,,-99.99,VWS V14.01,2013-01-17 00:27:00,
2013-01-16 19:33:00,32.2,-4.4,28.67,North,-999,-999.0,-999.0,20,-99.99,,,-99.99,VWS V14.01,2013-01-17 00:33:00,
2013-01-16 19:39:00,32.2,-4.4,28.67,North,-999,-999.0,-999.0,20,-99.99,,,-99.99,VWS V14.01,2013-01-17 00:39:00,
2013-01-16 19:45:00,32.2,-4.4,28.67,North,-999,-999.0,-999.0,20,-99.99,,,-99.99,VWS V14.01,2013-01-17 00:45:00,
2013-01-16 19:50:00,32.2,-4.4,28.67,North,-999,-999.0,-999.0,20,-99.99,,,-99.99,VWS V14.01,2013-01-17 00:50:00,
2013-01-16 19:56:00,32.0,-4.5,28.67,North,-999,-999.0,-999.0,20,-99.99,,,-99.99,VWS V14.01,2013-01-17 00:56:00,
2013-01-16 20:01:00,32.0,-4.5,28.70,North,-999,-999.0,-999.0,20,-99.99,,,-99.99,VWS V14.01,2013-01-17 01:01:00,
2013-01-16 20:06:00,32.2,-4.4,28.70,North,-999,-999.0,-999.0,20,-99.99,,,-99.99,VWS V14.01,2013-01-17 01:06:00,
2013-01-16 20:11:00,32.0,-4.5,28.70,North,-999,-999.0,-999.0,20,-99.99,,,-99.99,VWS V14.01,2013-01-17 01:11:00,
2013-01-16 20:16:00,32.0,-4.5,28.70,North,-999,-999.0,-999.0,20,-99.99,,,-99.99,VWS V14.01,2013-01-17 01:16:00,
2013-01-16 20:21:00,32.0,-4.5,28.70,North,-999,-999.0,-999.0,20,-99.99,,,-99.99,VWS V14.01,2013-01-17 01:21:00,
2013-01-16 20:27:00,32.0,-4.5,28.70,North,-999,-999.0,-999.0,20,-99.99,,,-99.99,VWS V14.01,2013-01-17 01:27:00,
2013-01-16 20:32:00,32.0,-4.5,28.70,North,-999,-999.0,-999.0,20,-99.99,,,-99.99,VWS V14.01,2013-01-17 01:32:00,
2013-01-16 20:38:00,32.0,-1.6,28.70,North,-999,-999.0,-999.0,23,-99.99,,,-99.99,VWS V14.01,2013-01-17 01:38:00,
2013-01-16 20:44:00,32.0,-1.6,28.70,North,-999,-999.0,-999.0,23,-99.99,,,-99.99,VWS V14.01,2013-01-17 01:44:00,
2013-01-16 20:50:00,32.0,-1.6,28.70,North,-999,-999.0,-999.0,23,-99.99,,,-99.99,VWS V14.01,2013-01-17 01:50:00,
2013-01-16 20:55:00,32.0,-1.6,28.70,North,-999,-999.0,-999.0,23,-99.99,,,-99.99,VWS V14.01,2013-01-17 01:55:00,
2013-01-16 21:00:00,32.0,0.2,28.70,North,-999,-999.0,-999.0,25,-99.99,,,-99.99,VWS V14.01,2013-01-17 02:00:00,
2013-01-16 21:06:00,32.0,2.6,28.70,North,-999,-999.0,-999.0,28,-99.99,,,-99.99,VWS V14.01,2013-01-17 02:06:00,
2013-01-16 21:11:00,32.0,4.1,28.70,North,-999,-999.0,-999.0,30,-99.99,,,-99.99,VWS V14.01,2013-01-17 02:11:00,
2013-01-16 21:17:00,32.2,5.0,28.70,North,-999,-999.0,-999.0,31,-99.99,,,-99.99,VWS V14.01,2013-01-17 02:17:00,
2013-01-16 21:22:00,32.4,5.8,28.70,North,-999,-999.0,-999.0,32,-99.99,,,-99.99,VWS V14.01,2013-01-17 02:22:00,
2013-01-16 21:27:00,32.5,6.0,28.70,North,-999,-999.0,-999.0,32,-99.99,,,-99.99,VWS V14.01,2013-01-17 02:27:00,
2013-01-16 21:32:00,32.4,5.8,28.70,North,-999,-999.0,-999.0,32,-99.99,,,-99.99,VWS V14.01,2013-01-17 02:32:00,
2013-01-16 21:37:00,32.4,6.5,28.70,North,-999,-999.0,-999.0,33,-99.99,,,-99.99,VWS V14.01,2013-01-17 02:37:00,
2013-01-16 21:43:00,32.4,6.5,28.70,North,-999,-999.0,-999.0,33,-99.99,,,-99.99,VWS V14.01,2013-01-17 02:43:00,
2013-01-16 21:49:00,32.2,6.3,28.73,North,-999,-999.0,-999.0,33,-99.99,,,-99.99,VWS V14.01,2013-01-17 02:49:00,
2013-01-16 21:54:00,32.2,7.0,28.73,North,-999,-999.0,-999.0,34,-99.99,,,-99.99,VWS V14.01,2013-01-17 02:54:00,
2013-01-16 22:00:00,32.2,7.0,28.73,North,-999,-999.0,-999.0,34,-99.99,,,-99.99,VWS V14.01,2013-01-17 03:00:00,
2013-01-16 22:05:00,32.2,7.0,28.73,North,-999,-999.0,-999.0,34,-99.99,,,-99.99,VWS V14.01,2013-01-17 03:05:00,
2013-01-16 22:10:00,32.2,7.6,28.73,North,-999,-999.0,-999.0,35,-99.99,,,-99.99,VWS V14.01,2013-01-17 03:10:00,
2013-01-16 22:15:00,32.2,8.2,28.73,North,-999,-999.0,-999.0,36,-99.99,,,-99.99,VWS V14.01,2013-01-17 03:15:00,
2013-01-16 22:20:00,32.2,8.2,28.73,North,-999,-999.0,-999.0,36,-99.99,,,-99.99,VWS V14.01,2013-01-17 03:20:00,
2013-01-16 22:25:00,32.2,8.2,28.73,North,-999,-999.0,-999.0,36,-99.99,,,-99.99,VWS V14.01,2013-01-17 03:25:00,
2013-01-16 22:31:00,32.0,9.3,28.73,North,-999,-999.0,-999.0,38,-99.99,,,-99.99,VWS V14.01,2013-01-17 03:31:00,
2013-01-16 22:36:00,32.0,9.9,28.73,North,-999,-999.0,-999.0,39,-99.99,,,-99.99,VWS V14.01,2013-01-17 03:36:00,
2013-01-16 22:41:00,32.0,10.4,28.73,North,-999,-999.0,-999.0,40,-99.99,,,-99.99,VWS V14.01,2013-01-17 03:41:00,
2013-01-16 22:46:00,32.0,10.4,28.73,North,-999,-999.0,-999.0,40,-99.99,,,-99.99,VWS V14.01,2013-01-17 03:46:00,
2013-01-16 22:52:00,32.0,10.4,28.73,North,-999,-999.0,-999.0,40,-99.99,,,-99.99,VWS V14.01,2013-01-17 03:52:00,
2013-01-16 22:57:00,32.0,11.0,28.73,North,-999,-999.0,-999.0,41,-99.99,,,-99.99,VWS V14.01,2013-01-17 03:57:00,
2013-01-16 23:03:00,32.0,11.0,28.73,North,-999,-999.0,-999.0,41,-99.99,,,-99.99,VWS V14.01,2013-01-17 04:03:00,
2013-01-16 23:08:00,32.0,11.0,28.73,North,-999,-999.0,-999.0,41,-99.99,,,-99.99,VWS V14.01,2013-01-17 04:08:00,
2013-01-16 23:13:00,32.0,11.5,28.73,North,-999,-999.0,-999.0,42,-99.99,,,-99.99,VWS V14.01,2013-01-17 04:13:00,
2013-01-16 23:19:00,32.0,11.5,28.73,North,-999,-999.0,-999.0,42,-99.99,,,-99.99,VWS V14.01,2013-01-17 04:19:00,
2013-01-16 23:24:00,31.8,12.4,28.73,North,-999,-999.0,-999.0,44,-99.99,,,-99.99,VWS V14.01,2013-01-17 04:24:00,
2013-01-16 23:29:00,31.6,13.2,28.73,North,-999,-999.0,-999.0,46,-99.99,,,-99.99,VWS V14.01,2013-01-17 04:29:00,
2013-01-16 23:34:00,31.6,13.7,28.76,North,-999,-999.0,-999.0,47,-99.99,,,-99.99,VWS V14.01,2013-01-17 04:34:00,
2013-01-16 23:40:00,31.6,14.2,28.76,North,-999,-999.0,-999.0,48,-99.99,,,-99.99,VWS V14.01,2013-01-17 04:40:00,
2013-01-16 23:46:00,31.6,14.7,28.76,North,-999,-999.0,-999.0,49,-99.99,,,-99.99,VWS V14.01,2013-01-17 04:46:00,
2013-01-16 23:51:00,31.6,15.1,28.76,North,-999,-999.0,-999.0,50,-99.99,,,-99.99,VWS V14.01,2013-01-17 04:51:00,
2013-01-16 23:57:00,31.8,15.3,28.76,North,-999,-999.0,-999.0,50,-99.99,,,-99.99,VWS V14.01,2013-01-17 04:57:00,